createdAt,value
2024-05-09T00:01:38.093Z,14.77
2024-05-09T00:04:12.009Z,17.15
2024-05-09T00:06:43.560Z,17.17
2024-05-09T00:09:14.691Z,15.27
2024-05-09T00:11:46.265Z,15.90
2024-05-09T00:14:17.508Z,16.20
2024-05-09T00:16:50.045Z,15.13
2024-05-09T00:19:23.993Z,15.05
2024-05-09T00:21:55.588Z,17.52
2024-05-09T00:24:26.762Z,19.55
2024-05-09T00:26:58.344Z,16.92
2024-05-09T00:29:29.816Z,17.33
2024-05-09T00:32:01.571Z,18.25
2024-05-09T00:34:35.536Z,17.45
2024-05-09T00:37:07.396Z,18.13
2024-05-09T00:39:38.572Z,17.13
2024-05-09T00:42:10.152Z,15.85
2024-05-09T00:44:41.346Z,17.00
2024-05-09T00:47:12.996Z,17.42
2024-05-09T00:49:47.349Z,19.83
2024-05-09T00:52:19.483Z,16.88
2024-05-09T00:54:50.867Z,17.85
2024-05-09T00:57:22.473Z,19.17
2024-05-09T00:59:54.700Z,13.45
2024-05-09T01:02:28.794Z,15.18
2024-05-09T01:05:02.882Z,13.85
2024-05-09T01:07:34.700Z,14.68
2024-05-09T01:10:11.734Z,14.80
2024-05-09T01:12:48.654Z,13.25
2024-05-09T01:15:19.837Z,13.85
2024-05-09T01:17:51.994Z,11.60
2024-05-09T01:20:36.873Z,13.10
2024-05-09T01:23:16.879Z,13.25
2024-05-09T01:25:48.483Z,17.65
2024-05-09T01:28:20.097Z,20.02
2024-05-09T01:30:51.268Z,16.35
2024-05-09T01:33:23.053Z,12.95
2024-05-09T01:35:54.354Z,14.13
2024-05-09T01:38:28.697Z,13.23
2024-05-09T01:41:00.163Z,16.42
2024-05-09T01:43:31.763Z,20.38
2024-05-09T01:46:02.906Z,12.02
2024-05-09T01:48:34.603Z,13.07
2024-05-09T01:51:05.941Z,14.32
2024-05-09T01:53:40.843Z,14.50
2024-05-09T01:56:12.461Z,14.75
2024-05-09T01:58:44.153Z,15.82
2024-05-09T02:01:15.357Z,15.00
2024-05-09T02:03:49.543Z,17.48
2024-05-09T02:06:20.943Z,17.40
2024-05-09T02:08:55.164Z,16.67
2024-05-09T02:11:26.372Z,13.60
2024-05-09T02:13:58.002Z,12.05
2024-05-09T02:16:29.152Z,13.95
2024-05-09T02:19:00.916Z,18.92
2024-05-09T02:21:34.244Z,14.45
2024-05-09T02:24:08.877Z,14.43
2024-05-09T02:26:40.159Z,14.35
2024-05-09T02:29:11.837Z,12.80
2024-05-09T02:31:43.209Z,13.75
2024-05-09T02:34:14.878Z,13.85
2024-05-09T02:36:46.049Z,15.63
2024-05-09T02:39:17.630Z,15.38
2024-05-09T02:41:48.843Z,12.48
2024-05-09T02:44:17.887Z,13.13
2024-05-09T02:46:49.270Z,15.63
2024-05-09T02:49:18.468Z,14.05
2024-05-09T02:51:49.632Z,14.70
2024-05-09T02:54:21.168Z,12.50
2024-05-09T02:56:52.406Z,10.65
2024-05-09T02:59:21.490Z,9.02
2024-05-09T03:01:52.787Z,11.07
2024-05-09T03:04:21.932Z,9.35
2024-05-09T03:06:53.171Z,8.00
2024-05-09T03:09:25.263Z,9.88
2024-05-09T03:11:56.513Z,16.17
2024-05-09T03:14:25.516Z,12.07
2024-05-09T03:16:56.794Z,21.60
2024-05-09T03:19:25.971Z,15.68
2024-05-09T03:21:57.113Z,14.45
2024-05-09T03:24:28.699Z,13.82
2024-05-09T03:26:59.918Z,12.82
2024-05-09T03:29:28.934Z,15.25
2024-05-09T03:32:00.160Z,7.18
2024-05-09T03:34:29.134Z,4.85
2024-05-09T03:37:00.226Z,8.68
2024-05-09T03:39:34.508Z,7.53
2024-05-09T03:42:05.779Z,15.45
2024-05-09T03:44:37.414Z,29.85
2024-05-09T03:47:06.042Z,32.35
2024-05-09T03:49:37.721Z,43.65
2024-05-09T03:52:06.740Z,31.05
2024-05-09T03:54:47.594Z,15.13
2024-05-09T03:57:16.160Z,9.23
2024-05-09T03:59:47.648Z,9.25
2024-05-09T04:02:16.203Z,10.43
2024-05-09T04:04:47.996Z,8.07
2024-05-09T04:07:17.089Z,16.58
2024-05-09T04:09:51.400Z,20.70
2024-05-09T04:12:19.953Z,20.50
2024-05-09T04:14:51.486Z,17.40
2024-05-09T04:17:19.994Z,20.92
2024-05-09T04:19:51.696Z,17.88
2024-05-09T04:22:20.248Z,8.70
2024-05-09T04:24:54.651Z,5.78
2024-05-09T04:27:23.154Z,5.68
2024-05-09T04:29:54.741Z,3.65
2024-05-09T04:32:23.326Z,7.63
2024-05-09T04:34:55.114Z,3.75
2024-05-09T04:37:23.666Z,12.25
2024-05-09T04:39:58.058Z,14.63
2024-05-09T04:42:26.639Z,13.40
2024-05-09T04:44:58.812Z,11.73
2024-05-09T04:47:27.456Z,9.00
2024-05-09T04:49:59.062Z,17.65
2024-05-09T04:52:27.549Z,13.40
2024-05-09T04:55:01.863Z,6.88
2024-05-09T04:57:30.403Z,10.00
2024-05-09T05:00:04.069Z,7.70
2024-05-09T05:02:34.087Z,8.15
2024-05-09T05:05:05.990Z,4.80
2024-05-09T05:07:34.600Z,15.63
2024-05-09T05:10:14.839Z,4.28
2024-05-09T05:13:07.884Z,6.03
2024-05-09T05:15:39.444Z,3.72
2024-05-09T05:18:08.129Z,3.17
2024-05-09T05:20:39.926Z,3.22
2024-05-09T05:23:10.921Z,4.95
2024-05-09T05:25:47.962Z,4.50
2024-05-09T05:28:17.343Z,4.60
2024-05-09T05:30:49.544Z,5.22
2024-05-09T05:33:19.275Z,3.50
2024-05-09T05:35:51.595Z,6.30
2024-05-09T05:38:23.793Z,5.10
2024-05-09T05:41:00.601Z,7.20
2024-05-09T05:43:29.725Z,5.72
2024-05-09T05:46:01.259Z,4.22
2024-05-09T05:48:30.238Z,5.82
2024-05-09T05:51:04.303Z,7.80
2024-05-09T05:53:33.579Z,3.35
2024-05-09T05:56:08.632Z,7.47
2024-05-09T05:58:37.164Z,5.82
2024-05-09T06:01:09.478Z,13.52
2024-05-09T06:03:38.583Z,7.43
2024-05-09T06:06:10.570Z,6.75
2024-05-09T06:08:39.184Z,8.65
2024-05-09T06:11:13.488Z,11.50
2024-05-09T06:13:43.695Z,5.80
2024-05-09T06:16:15.243Z,9.82
2024-05-09T06:18:43.871Z,6.90
2024-05-09T06:21:16.000Z,11.07
2024-05-09T06:23:51.274Z,4.65
2024-05-09T06:26:25.738Z,4.85
2024-05-09T06:28:54.364Z,4.88
2024-05-09T06:31:25.950Z,13.55
2024-05-09T06:33:54.588Z,7.93
2024-05-09T06:36:26.165Z,5.10
2024-05-09T06:38:54.655Z,7.25
2024-05-09T06:41:28.994Z,3.08
2024-05-09T06:43:57.691Z,4.97
2024-05-09T06:46:29.586Z,8.52
2024-05-09T06:48:59.313Z,4.68
2024-05-09T06:53:59.209Z,3.70
2024-05-09T06:56:33.409Z,6.43
2024-05-09T06:59:02.135Z,8.02
2024-05-09T07:01:33.952Z,4.45
2024-05-09T07:04:02.649Z,6.68
2024-05-09T07:06:34.246Z,7.57
2024-05-09T07:09:02.746Z,11.25
2024-05-09T07:11:38.218Z,6.68
2024-05-09T07:14:06.905Z,12.60
2024-05-09T07:16:38.450Z,6.43
2024-05-09T07:19:07.263Z,4.82
2024-05-09T07:21:38.941Z,4.30
2024-05-09T07:24:07.530Z,5.80
2024-05-09T07:26:41.786Z,8.27
2024-05-09T07:29:10.379Z,3.40
2024-05-09T07:31:41.918Z,4.32
2024-05-09T07:34:12.090Z,4.43
2024-05-09T07:36:43.776Z,5.95
2024-05-09T07:39:12.406Z,3.33
2024-05-09T07:41:46.731Z,5.90
2024-05-09T07:44:15.370Z,4.63
2024-05-09T07:47:48.600Z,2.92
2024-05-09T07:53:29.728Z,3.08
2024-05-09T07:55:02.459Z,9.07
2024-05-09T07:57:37.479Z,2.33
2024-05-09T08:00:08.239Z,5.53
2024-05-09T08:02:43.197Z,3.22
2024-05-09T08:05:11.886Z,2.95
2024-05-09T08:07:45.355Z,3.50
2024-05-09T08:10:18.716Z,4.28
2024-05-09T08:12:56.118Z,3.88
2024-05-09T08:15:24.695Z,2.97
2024-05-09T08:17:57.085Z,3.47
2024-05-09T08:20:31.116Z,3.72
2024-05-09T08:23:06.748Z,2.35
2024-05-09T08:25:35.325Z,34.78
2024-05-09T08:28:11.062Z,70.50
2024-05-09T08:30:39.822Z,6.78
2024-05-09T08:33:11.599Z,6.30
2024-05-09T08:35:40.167Z,3.85
2024-05-09T08:38:12.131Z,3.38
2024-05-09T08:40:41.464Z,6.22
2024-05-09T08:43:17.021Z,5.78
2024-05-09T08:45:47.060Z,3.85
2024-05-09T08:48:20.878Z,5.47
2024-05-09T08:50:53.452Z,2.75
2024-05-09T08:53:25.216Z,3.58
2024-05-09T08:55:55.148Z,9.15
2024-05-09T08:58:32.456Z,3.58
2024-05-09T09:01:02.847Z,7.03
2024-05-09T09:03:39.377Z,5.65
2024-05-09T09:06:11.122Z,7.85
2024-05-09T09:08:43.226Z,6.20
2024-05-09T09:11:12.184Z,9.93
2024-05-09T09:13:46.402Z,4.20
2024-05-09T09:16:16.330Z,9.07
2024-05-09T09:18:50.039Z,4.05
2024-05-09T09:21:19.023Z,8.90
2024-05-09T09:23:50.621Z,5.63
2024-05-09T09:26:19.454Z,7.88
2024-05-09T09:28:54.461Z,7.10
2024-05-09T09:31:23.081Z,9.13
2024-05-09T09:33:55.136Z,3.08
2024-05-09T09:36:23.847Z,8.57
2024-05-09T09:38:55.507Z,7.10
2024-05-09T09:41:30.036Z,9.85
2024-05-09T09:44:06.522Z,8.60
2024-05-09T09:46:36.386Z,4.72
2024-05-09T09:49:09.449Z,3.80
2024-05-09T09:51:43.572Z,11.32
2024-05-09T09:54:16.367Z,6.65
2024-05-09T09:56:47.712Z,4.72
2024-05-09T09:59:24.221Z,21.50
2024-05-09T10:01:52.895Z,5.82
2024-05-09T10:04:24.878Z,5.47
2024-05-09T10:06:58.778Z,6.53
2024-05-09T10:09:30.598Z,6.22
2024-05-09T10:12:09.521Z,4.05
2024-05-09T10:14:50.625Z,6.97
2024-05-09T10:17:19.232Z,5.28
2024-05-09T10:19:51.090Z,3.67
2024-05-09T10:22:28.115Z,7.80
2024-05-09T10:25:08.330Z,14.73
2024-05-09T10:27:39.634Z,6.93
2024-05-09T10:30:29.424Z,4.82
2024-05-09T10:33:05.766Z,6.53
2024-05-09T10:35:34.760Z,4.70
2024-05-09T10:38:09.874Z,6.30
2024-05-09T10:40:40.279Z,3.90
2024-05-09T10:43:12.058Z,4.60
2024-05-09T10:45:43.706Z,7.63
2024-05-09T10:48:15.955Z,6.18
2024-05-09T10:50:49.698Z,5.22
2024-05-09T10:53:22.116Z,5.43
2024-05-09T10:55:57.135Z,6.65
2024-05-09T10:58:28.762Z,4.18
2024-05-09T11:01:05.434Z,7.25
2024-05-09T11:03:38.269Z,4.88
2024-05-09T11:06:09.825Z,4.97
2024-05-09T11:08:42.164Z,8.45
2024-05-09T11:11:11.742Z,4.63
2024-05-09T11:13:43.338Z,5.47
2024-05-09T11:16:21.292Z,4.75
2024-05-09T11:18:59.688Z,2.92
2024-05-09T11:21:28.772Z,7.20
2024-05-09T11:24:01.365Z,7.25
2024-05-09T11:26:33.019Z,18.38
2024-05-09T11:29:04.159Z,3.15
2024-05-09T11:31:46.751Z,5.30
2024-05-09T11:34:18.992Z,3.78
2024-05-09T11:36:48.042Z,12.13
2024-05-09T11:39:19.234Z,3.58
2024-05-09T11:41:48.155Z,2.83
2024-05-09T11:44:19.218Z,8.13
2024-05-09T11:46:51.005Z,4.50
2024-05-09T11:49:25.335Z,8.57
2024-05-09T11:51:55.305Z,5.93
2024-05-09T11:54:26.522Z,5.38
2024-05-09T11:56:55.499Z,3.55
2024-05-09T11:59:26.583Z,3.65
2024-05-09T12:01:58.395Z,5.47
2024-05-09T12:04:29.884Z,7.38
2024-05-09T12:06:59.098Z,6.88
2024-05-09T12:09:30.301Z,4.82
2024-05-09T12:11:59.253Z,5.05
2024-05-09T12:14:30.399Z,3.13
2024-05-09T12:17:03.962Z,6.35
2024-05-09T12:19:35.453Z,4.63
2024-05-09T12:22:04.928Z,3.83
2024-05-09T12:24:36.144Z,7.05
2024-05-09T12:27:05.666Z,3.63
2024-05-09T12:29:38.883Z,4.43
2024-05-09T12:32:10.770Z,4.50
2024-05-09T12:34:42.096Z,5.68
2024-05-09T12:37:11.266Z,5.10
2024-05-09T12:39:42.488Z,3.08
2024-05-09T12:42:14.625Z,2.63
2024-05-09T12:44:51.272Z,5.15
2024-05-09T12:47:23.024Z,3.42
2024-05-09T12:49:54.335Z,4.82
2024-05-09T12:52:23.501Z,2.20
2024-05-09T12:54:54.934Z,6.40
2024-05-09T12:57:25.643Z,5.10
2024-05-09T12:59:56.827Z,4.47
2024-05-09T13:02:28.634Z,3.78
2024-05-09T13:04:59.969Z,8.73
2024-05-09T13:07:29.147Z,2.45
2024-05-09T13:10:00.339Z,5.30
2024-05-09T13:12:29.362Z,10.15
2024-05-09T13:15:00.584Z,10.50
2024-05-09T13:17:33.101Z,5.05
2024-05-09T13:20:07.083Z,9.65
2024-05-09T13:22:39.169Z,7.03
2024-05-09T13:25:10.626Z,4.65
2024-05-09T13:27:39.814Z,3.75
2024-05-09T13:30:17.675Z,4.78
2024-05-09T13:32:57.537Z,6.47
2024-05-09T13:35:26.757Z,4.10
2024-05-09T13:37:58.802Z,5.38
2024-05-09T13:40:33.085Z,8.25
2024-05-09T13:43:07.299Z,11.20
2024-05-09T13:45:36.307Z,5.60
2024-05-09T13:48:11.121Z,13.77
2024-05-09T13:50:39.728Z,5.30
2024-05-09T13:53:11.834Z,7.60
2024-05-09T13:55:40.934Z,11.57
2024-05-09T13:58:12.589Z,7.63
2024-05-09T14:00:46.673Z,11.88
2024-05-09T14:03:23.295Z,8.05
2024-05-09T14:05:52.411Z,9.68
2024-05-09T14:08:24.709Z,6.88
2024-05-09T14:10:53.781Z,8.73
2024-05-09T14:13:25.514Z,3.42
2024-05-09T14:15:54.045Z,4.43
2024-05-09T14:18:28.381Z,9.35
2024-05-09T14:20:56.867Z,3.88
2024-05-09T14:23:28.420Z,9.18
2024-05-09T14:25:56.825Z,5.78
2024-05-09T14:28:29.021Z,6.03
2024-05-09T14:30:57.729Z,5.70
2024-05-09T14:33:32.189Z,5.18
2024-05-09T14:36:00.847Z,5.50
2024-05-09T14:38:32.558Z,6.50
2024-05-09T14:41:00.974Z,7.30
2024-05-09T14:43:32.609Z,11.75
2024-05-09T14:46:01.167Z,4.60
2024-05-09T14:48:35.657Z,6.43
2024-05-09T14:51:04.443Z,5.80
2024-05-09T14:53:35.862Z,6.28
2024-05-09T14:56:04.517Z,7.22
2024-05-09T14:58:36.005Z,6.47
2024-05-09T15:01:04.769Z,5.43
2024-05-09T15:03:38.910Z,5.23
2024-05-09T15:06:07.647Z,8.55
2024-05-09T15:08:39.197Z,7.20
2024-05-09T15:11:07.664Z,6.03
2024-05-09T15:13:39.213Z,6.00
2024-05-09T15:16:08.310Z,5.07
2024-05-09T15:18:44.017Z,8.75
2024-05-09T15:21:12.930Z,7.22
2024-05-09T15:23:44.425Z,6.93
2024-05-09T15:26:12.972Z,11.48
2024-05-09T15:28:44.665Z,6.85
2024-05-09T15:31:13.073Z,7.97
2024-05-09T15:33:47.136Z,8.15
2024-05-09T15:36:15.668Z,6.47
2024-05-09T15:38:47.135Z,9.55
2024-05-09T15:41:15.572Z,7.38
2024-05-09T15:43:47.006Z,5.90
2024-05-09T15:46:15.690Z,6.43
2024-05-09T15:48:49.933Z,9.35
2024-05-09T15:51:18.411Z,8.55
2024-05-09T15:53:50.048Z,3.83
2024-05-09T15:56:18.555Z,4.93
2024-05-09T15:58:50.133Z,6.68
2024-05-09T16:01:18.616Z,6.10
2024-05-09T16:03:53.391Z,5.43
2024-05-09T16:06:22.282Z,4.15
2024-05-09T16:08:53.756Z,8.32
2024-05-09T16:11:22.156Z,6.18
2024-05-09T16:13:53.518Z,8.55
2024-05-09T16:16:22.165Z,5.18
2024-05-09T16:18:56.508Z,7.93
2024-05-09T16:21:24.976Z,5.88
2024-05-09T16:23:56.439Z,7.38
2024-05-09T16:26:24.854Z,5.95
2024-05-09T16:28:56.396Z,4.70
2024-05-09T16:31:25.109Z,5.47
2024-05-09T16:33:59.759Z,7.13
2024-05-09T16:36:28.373Z,10.02
2024-05-09T16:39:00.254Z,6.93
2024-05-09T16:41:28.729Z,7.25
2024-05-09T16:44:01.796Z,7.65
2024-05-09T16:46:30.639Z,7.72
2024-05-09T16:49:05.787Z,9.20
2024-05-09T16:51:34.413Z,5.80
2024-05-09T16:54:05.893Z,7.40
2024-05-09T16:56:34.339Z,7.22
2024-05-09T16:59:05.892Z,5.65
2024-05-09T17:01:34.490Z,8.32
2024-05-09T17:04:09.185Z,6.05
2024-05-09T17:06:37.918Z,3.70
2024-05-09T17:09:11.961Z,5.95
2024-05-09T17:11:46.671Z,6.35
2024-05-09T17:14:18.483Z,6.57
2024-05-09T17:16:49.891Z,5.80
2024-05-09T17:19:21.559Z,8.55
2024-05-09T17:21:53.443Z,6.15
2024-05-09T17:24:22.341Z,5.15
2024-05-09T17:26:54.173Z,6.15
2024-05-09T17:29:23.136Z,6.72
2024-05-09T17:31:54.200Z,5.90
2024-05-09T17:34:26.208Z,6.05
2024-05-09T17:36:57.581Z,6.72
2024-05-09T17:39:26.725Z,6.18
2024-05-09T17:41:57.714Z,7.78
2024-05-09T17:44:27.164Z,7.72
2024-05-09T17:46:58.549Z,10.70
2024-05-09T17:49:30.396Z,8.88
2024-05-09T17:52:01.594Z,9.25
2024-05-09T17:54:30.527Z,13.48
2024-05-09T17:57:01.619Z,13.15
2024-05-09T17:59:30.605Z,14.48
2024-05-09T18:02:02.019Z,11.63
2024-05-09T18:04:34.120Z,13.50
2024-05-09T18:07:05.400Z,12.82
2024-05-09T18:09:34.262Z,12.60
2024-05-09T18:12:05.335Z,14.45
2024-05-09T18:14:34.205Z,14.90
2024-05-09T18:17:05.904Z,15.10
2024-05-09T18:19:37.733Z,18.27
2024-05-09T18:22:09.210Z,19.98
2024-05-09T18:24:38.310Z,25.00
2024-05-09T18:27:10.123Z,21.48
2024-05-09T18:29:39.014Z,25.45
2024-05-09T18:32:10.388Z,21.00
2024-05-09T18:34:42.001Z,33.88
2024-05-09T18:37:13.241Z,22.85
2024-05-09T18:39:42.406Z,27.10
2024-05-09T18:42:13.715Z,32.53
2024-05-09T18:44:42.679Z,34.33
2024-05-09T18:47:16.032Z,24.55
2024-05-09T18:49:49.289Z,28.90
2024-05-09T18:52:20.579Z,28.80
2024-05-09T18:54:49.641Z,26.48
2024-05-09T18:57:20.774Z,32.47
2024-05-09T18:59:49.649Z,23.95
2024-05-09T19:02:20.944Z,17.67
2024-05-09T19:04:52.940Z,21.27
2024-05-09T19:07:24.292Z,25.25
2024-05-09T19:09:53.431Z,22.40
2024-05-09T19:12:24.417Z,20.90
2024-05-09T19:14:53.508Z,18.98
2024-05-09T19:17:24.703Z,19.75
2024-05-09T19:19:56.764Z,18.77
2024-05-09T19:22:28.366Z,15.38
2024-05-09T19:24:57.282Z,16.58
2024-05-09T19:27:28.845Z,21.48
2024-05-09T19:29:58.054Z,23.65
2024-05-09T19:32:29.507Z,16.95
2024-05-09T19:35:01.126Z,19.58
2024-05-09T19:37:32.481Z,18.70
2024-05-09T19:40:01.391Z,20.05
2024-05-09T19:42:32.731Z,14.35
2024-05-09T19:45:01.717Z,11.85
2024-05-09T19:47:32.843Z,15.20
2024-05-09T19:50:10.526Z,22.73
2024-05-09T19:52:42.214Z,12.90
2024-05-09T19:55:11.252Z,17.10
2024-05-09T19:57:42.442Z,18.20
2024-05-09T20:00:17.913Z,17.80
2024-05-09T20:02:53.541Z,17.38
2024-05-09T20:05:25.528Z,20.52
2024-05-09T20:07:57.050Z,17.90
2024-05-09T20:10:31.464Z,13.88
2024-05-09T20:13:05.708Z,15.38
2024-05-09T20:15:37.061Z,12.82
2024-05-09T20:20:42.899Z,14.77
2024-05-09T20:23:16.208Z,16.00
2024-05-09T20:25:45.078Z,20.58
2024-05-09T20:28:16.705Z,15.70
2024-05-09T20:30:45.761Z,18.17
2024-05-09T20:33:17.014Z,16.02
2024-05-09T20:35:48.732Z,15.77
2024-05-09T20:38:19.812Z,17.75
2024-05-09T20:40:49.093Z,17.52
2024-05-09T20:43:20.740Z,13.65
2024-05-09T20:45:49.785Z,11.88
2024-05-09T20:48:21.137Z,15.85
2024-05-09T20:50:52.726Z,15.85
2024-05-09T20:53:23.758Z,16.08
2024-05-09T20:55:52.695Z,18.05
2024-05-09T20:58:23.850Z,13.43
2024-05-09T21:00:52.841Z,12.32
2024-05-09T21:03:24.015Z,14.10
2024-05-09T21:05:56.298Z,15.13
2024-05-09T21:08:27.961Z,11.48
2024-05-09T21:10:56.885Z,12.07
2024-05-09T21:13:28.095Z,17.20
2024-05-09T21:15:57.198Z,15.02
2024-05-09T21:18:28.308Z,17.80
2024-05-09T21:20:59.963Z,12.20
2024-05-09T21:23:31.076Z,15.63
2024-05-09T21:25:59.942Z,16.63
2024-05-09T21:28:31.586Z,11.18
2024-05-09T21:31:00.490Z,14.27
2024-05-09T21:33:31.691Z,14.32
2024-05-09T21:36:03.273Z,11.32
2024-05-09T21:38:34.508Z,9.82
2024-05-09T21:41:03.345Z,10.88
2024-05-09T21:43:34.395Z,11.55
2024-05-09T21:46:03.457Z,11.90
2024-05-09T21:48:34.668Z,13.85
2024-05-09T21:51:14.220Z,10.23
2024-05-09T21:53:45.415Z,16.05
2024-05-09T21:56:14.347Z,13.20
2024-05-09T21:58:45.344Z,12.52
2024-05-09T22:01:14.463Z,13.30
2024-05-09T22:03:45.973Z,10.95
2024-05-09T22:06:17.715Z,10.73
2024-05-09T22:08:48.724Z,14.73
2024-05-09T22:11:17.661Z,12.63
2024-05-09T22:13:48.679Z,11.85
2024-05-09T22:16:17.999Z,10.75
2024-05-09T22:18:49.283Z,12.35
2024-05-09T22:21:20.953Z,8.48
2024-05-09T22:23:52.190Z,8.98
2024-05-09T22:26:21.138Z,10.30
2024-05-09T22:28:52.071Z,8.85
2024-05-09T22:31:21.052Z,9.77
2024-05-09T22:33:52.480Z,7.85
2024-05-09T22:36:24.716Z,7.22
2024-05-09T22:38:55.654Z,7.00
2024-05-09T22:41:24.575Z,9.93
2024-05-09T22:43:55.558Z,5.57
2024-05-09T22:46:24.579Z,10.05
2024-05-09T22:48:55.975Z,6.68
2024-05-09T22:51:27.578Z,6.45
2024-05-09T22:53:58.688Z,5.38
2024-05-09T22:56:30.847Z,5.32
2024-05-09T22:59:00.831Z,6.50
2024-05-09T23:01:32.559Z,6.68
2024-05-09T23:04:02.343Z,8.52
2024-05-09T23:06:37.501Z,8.00
2024-05-09T23:09:08.191Z,6.47
2024-05-09T23:11:45.811Z,8.57
2024-05-09T23:14:14.415Z,9.45
2024-05-09T23:16:45.973Z,7.78
2024-05-09T23:19:14.604Z,6.13
2024-05-09T23:21:48.740Z,10.63
2024-05-09T23:24:17.270Z,5.75
2024-05-09T23:26:48.541Z,5.80
2024-05-09T23:29:16.917Z,4.72
2024-05-09T23:31:48.216Z,4.63
2024-05-09T23:34:16.904Z,4.07
2024-05-09T23:36:51.223Z,6.10
2024-05-09T23:39:19.717Z,4.15
2024-05-09T23:41:51.272Z,3.65
2024-05-09T23:44:19.778Z,3.97
2024-05-09T23:46:51.313Z,4.75
2024-05-09T23:49:19.794Z,4.53
2024-05-09T23:51:53.951Z,6.38
2024-05-09T23:54:22.450Z,4.80
2024-05-09T23:56:53.924Z,6.03
2024-05-09T23:59:22.316Z,4.07
